sensor_id;sensor_type;location;lat;lon;timestamp;P1;durP1;ratioP1;P2;durP2;ratioP2
68870;SDS011;55906;52.278;6.808;2024-02-15T00:02:06;19.27;;;12.35;;
68870;SDS011;55906;52.278;6.808;2024-02-15T00:04:34;15.93;;;10.63;;
68870;SDS011;55906;52.278;6.808;2024-02-15T00:07:02;16.52;;;11.30;;
68870;SDS011;55906;52.278;6.808;2024-02-15T00:09:29;19.60;;;11.23;;
68870;SDS011;55906;52.278;6.808;2024-02-15T00:11:55;19.77;;;12.77;;
68870;SDS011;55906;52.278;6.808;2024-02-15T00:14:24;17.50;;;12.65;;
68870;SDS011;55906;52.278;6.808;2024-02-15T00:16:51;17.30;;;11.05;;
68870;SDS011;55906;52.278;6.808;2024-02-15T00:19:18;17.85;;;11.10;;
68870;SDS011;55906;52.278;6.808;2024-02-15T00:21:46;16.77;;;11.32;;
68870;SDS011;55906;52.278;6.808;2024-02-15T00:24:12;17.57;;;11.43;;
68870;SDS011;55906;52.278;6.808;2024-02-15T00:26:40;17.00;;;11.45;;
68870;SDS011;55906;52.278;6.808;2024-02-15T00:29:07;18.63;;;10.57;;
68870;SDS011;55906;52.278;6.808;2024-02-15T00:31:34;19.38;;;11.57;;
68870;SDS011;55906;52.278;6.808;2024-02-15T00:34:03;18.00;;;10.77;;
68870;SDS011;55906;52.278;6.808;2024-02-15T00:36:30;16.23;;;9.83;;
68870;SDS011;55906;52.278;6.808;2024-02-15T00:38:58;16.48;;;11.07;;
68870;SDS011;55906;52.278;6.808;2024-02-15T00:41:25;14.68;;;10.15;;
68870;SDS011;55906;52.278;6.808;2024-02-15T00:43:53;17.23;;;10.55;;
68870;SDS011;55906;52.278;6.808;2024-02-15T00:46:19;15.98;;;10.20;;
68870;SDS011;55906;52.278;6.808;2024-02-15T00:48:46;15.13;;;9.50;;
68870;SDS011;55906;52.278;6.808;2024-02-15T00:51:12;15.93;;;10.70;;
68870;SDS011;55906;52.278;6.808;2024-02-15T00:53:40;17.55;;;10.23;;
68870;SDS011;55906;52.278;6.808;2024-02-15T00:56:08;17.80;;;10.13;;
68870;SDS011;55906;52.278;6.808;2024-02-15T00:58:34;14.18;;;9.43;;
68870;SDS011;55906;52.278;6.808;2024-02-15T01:01:01;16.73;;;10.07;;
68870;SDS011;55906;52.278;6.808;2024-02-15T01:03:28;17.77;;;9.80;;
68870;SDS011;55906;52.278;6.808;2024-02-15T01:05:55;14.10;;;8.90;;
68870;SDS011;55906;52.278;6.808;2024-02-15T01:08:22;17.58;;;10.00;;
68870;SDS011;55906;52.278;6.808;2024-02-15T01:10:49;18.23;;;9.48;;
68870;SDS011;55906;52.278;6.808;2024-02-15T01:13:17;17.07;;;9.87;;
68870;SDS011;55906;52.278;6.808;2024-02-15T01:15:43;17.73;;;10.55;;
68870;SDS011;55906;52.278;6.808;2024-02-15T01:18:11;16.67;;;10.15;;
68870;SDS011;55906;52.278;6.808;2024-02-15T01:20:38;16.77;;;10.07;;
68870;SDS011;55906;52.278;6.808;2024-02-15T01:23:04;15.68;;;9.80;;
68870;SDS011;55906;52.278;6.808;2024-02-15T01:25:32;15.67;;;9.93;;
68870;SDS011;55906;52.278;6.808;2024-02-15T01:27:59;17.52;;;10.48;;
68870;SDS011;55906;52.278;6.808;2024-02-15T01:30:28;17.88;;;10.55;;
68870;SDS011;55906;52.278;6.808;2024-02-15T01:32:56;17.52;;;10.52;;
68870;SDS011;55906;52.278;6.808;2024-02-15T01:35:23;16.08;;;10.50;;
68870;SDS011;55906;52.278;6.808;2024-02-15T01:37:50;16.60;;;9.63;;
68870;SDS011;55906;52.278;6.808;2024-02-15T01:40:17;15.40;;;9.77;;
68870;SDS011;55906;52.278;6.808;2024-02-15T01:42:44;16.48;;;10.30;;
68870;SDS011;55906;52.278;6.808;2024-02-15T01:45:12;19.42;;;10.85;;
68870;SDS011;55906;52.278;6.808;2024-02-15T01:47:40;20.00;;;11.02;;
68870;SDS011;55906;52.278;6.808;2024-02-15T01:50:08;15.80;;;10.30;;
68870;SDS011;55906;52.278;6.808;2024-02-15T01:52:35;19.42;;;10.38;;
68870;SDS011;55906;52.278;6.808;2024-02-15T01:55:03;18.02;;;10.43;;
68870;SDS011;55906;52.278;6.808;2024-02-15T01:57:33;19.60;;;11.18;;
68870;SDS011;55906;52.278;6.808;2024-02-15T02:00:03;15.05;;;10.65;;
68870;SDS011;55906;52.278;6.808;2024-02-15T02:02:31;20.47;;;11.10;;
68870;SDS011;55906;52.278;6.808;2024-02-15T02:05:02;17.83;;;10.55;;
68870;SDS011;55906;52.278;6.808;2024-02-15T02:07:29;17.25;;;10.77;;
68870;SDS011;55906;52.278;6.808;2024-02-15T02:09:55;19.15;;;11.45;;
68870;SDS011;55906;52.278;6.808;2024-02-15T02:12:22;16.42;;;10.77;;
68870;SDS011;55906;52.278;6.808;2024-02-15T02:14:50;18.17;;;11.00;;
68870;SDS011;55906;52.278;6.808;2024-02-15T02:17:16;17.88;;;10.82;;
68870;SDS011;55906;52.278;6.808;2024-02-15T02:19:45;18.90;;;12.40;;
68870;SDS011;55906;52.278;6.808;2024-02-15T02:22:13;23.23;;;12.60;;
68870;SDS011;55906;52.278;6.808;2024-02-15T02:27:28;20.73;;;13.63;;
68870;SDS011;55906;52.278;6.808;2024-02-15T02:29:56;23.08;;;13.40;;
68870;SDS011;55906;52.278;6.808;2024-02-15T02:32:24;23.23;;;13.68;;
68870;SDS011;55906;52.278;6.808;2024-02-15T02:34:51;23.65;;;14.10;;
68870;SDS011;55906;52.278;6.808;2024-02-15T02:37:22;20.73;;;13.48;;
68870;SDS011;55906;52.278;6.808;2024-02-15T02:39:49;25.00;;;14.13;;
68870;SDS011;55906;52.278;6.808;2024-02-15T02:42:17;20.77;;;14.18;;
68870;SDS011;55906;52.278;6.808;2024-02-15T02:44:44;25.42;;;15.05;;
68870;SDS011;55906;52.278;6.808;2024-02-15T02:47:10;25.70;;;15.07;;
68870;SDS011;55906;52.278;6.808;2024-02-15T02:49:37;26.38;;;15.57;;
68870;SDS011;55906;52.278;6.808;2024-02-15T02:52:04;23.13;;;13.80;;
68870;SDS011;55906;52.278;6.808;2024-02-15T02:54:31;21.27;;;12.75;;
68870;SDS011;55906;52.278;6.808;2024-02-15T02:56:58;24.60;;;14.30;;
68870;SDS011;55906;52.278;6.808;2024-02-15T02:59:26;22.33;;;14.00;;
68870;SDS011;55906;52.278;6.808;2024-02-15T03:01:53;29.15;;;14.77;;
68870;SDS011;55906;52.278;6.808;2024-02-15T03:04:22;22.40;;;14.30;;
68870;SDS011;55906;52.278;6.808;2024-02-15T03:06:49;21.60;;;14.40;;
68870;SDS011;55906;52.278;6.808;2024-02-15T03:09:16;26.35;;;15.18;;
68870;SDS011;55906;52.278;6.808;2024-02-15T03:11:43;25.73;;;14.95;;
68870;SDS011;55906;52.278;6.808;2024-02-15T03:14:09;29.08;;;15.57;;
68870;SDS011;55906;52.278;6.808;2024-02-15T03:16:39;26.03;;;15.27;;
68870;SDS011;55906;52.278;6.808;2024-02-15T03:19:05;28.13;;;15.85;;
68870;SDS011;55906;52.278;6.808;2024-02-15T03:21:34;28.98;;;15.57;;
68870;SDS011;55906;52.278;6.808;2024-02-15T03:24:00;24.90;;;15.52;;
68870;SDS011;55906;52.278;6.808;2024-02-15T03:26:31;25.60;;;15.57;;
68870;SDS011;55906;52.278;6.808;2024-02-15T03:29:02;27.27;;;15.53;;
68870;SDS011;55906;52.278;6.808;2024-02-15T03:31:28;26.33;;;14.63;;
68870;SDS011;55906;52.278;6.808;2024-02-15T03:33:57;23.50;;;14.77;;
68870;SDS011;55906;52.278;6.808;2024-02-15T03:36:24;23.90;;;14.63;;
68870;SDS011;55906;52.278;6.808;2024-02-15T03:38:50;27.42;;;14.75;;
68870;SDS011;55906;52.278;6.808;2024-02-15T03:41:18;21.53;;;14.00;;
68870;SDS011;55906;52.278;6.808;2024-02-15T03:43:45;25.13;;;14.82;;
68870;SDS011;55906;52.278;6.808;2024-02-15T03:46:12;24.52;;;14.38;;
68870;SDS011;55906;52.278;6.808;2024-02-15T03:51:10;25.52;;;15.25;;
68870;SDS011;55906;52.278;6.808;2024-02-15T03:53:37;27.27;;;15.47;;
68870;SDS011;55906;52.278;6.808;2024-02-15T03:56:04;23.70;;;14.38;;
68870;SDS011;55906;52.278;6.808;2024-02-15T03:58:31;24.60;;;13.02;;
68870;SDS011;55906;52.278;6.808;2024-02-15T04:00:58;23.30;;;14.27;;
68870;SDS011;55906;52.278;6.808;2024-02-15T04:03:25;23.17;;;13.45;;
68870;SDS011;55906;52.278;6.808;2024-02-15T04:05:52;23.30;;;13.10;;
68870;SDS011;55906;52.278;6.808;2024-02-15T04:08:21;23.92;;;14.63;;
68870;SDS011;55906;52.278;6.808;2024-02-15T04:10:48;25.20;;;14.07;;
68870;SDS011;55906;52.278;6.808;2024-02-15T04:13:16;25.13;;;15.05;;
68870;SDS011;55906;52.278;6.808;2024-02-15T04:15:42;22.38;;;13.68;;
68870;SDS011;55906;52.278;6.808;2024-02-15T04:18:09;23.70;;;14.17;;
68870;SDS011;55906;52.278;6.808;2024-02-15T04:20:37;23.60;;;13.98;;
68870;SDS011;55906;52.278;6.808;2024-02-15T04:23:04;25.30;;;14.35;;
68870;SDS011;55906;52.278;6.808;2024-02-15T04:25:32;23.67;;;14.32;;
68870;SDS011;55906;52.278;6.808;2024-02-15T04:27:59;25.23;;;13.63;;
68870;SDS011;55906;52.278;6.808;2024-02-15T04:30:29;22.33;;;12.90;;
68870;SDS011;55906;52.278;6.808;2024-02-15T04:32:55;20.58;;;11.85;;
68870;SDS011;55906;52.278;6.808;2024-02-15T04:35:22;25.83;;;14.13;;
68870;SDS011;55906;52.278;6.808;2024-02-15T04:37:52;23.55;;;12.65;;
68870;SDS011;55906;52.278;6.808;2024-02-15T04:40:19;28.63;;;14.88;;
68870;SDS011;55906;52.278;6.808;2024-02-15T04:42:47;31.13;;;16.47;;
68870;SDS011;55906;52.278;6.808;2024-02-15T04:45:14;28.75;;;16.65;;
68870;SDS011;55906;52.278;6.808;2024-02-15T04:47:41;28.73;;;16.80;;
68870;SDS011;55906;52.278;6.808;2024-02-15T04:50:10;31.88;;;16.98;;
68870;SDS011;55906;52.278;6.808;2024-02-15T04:52:37;31.73;;;16.40;;
68870;SDS011;55906;52.278;6.808;2024-02-15T04:55:04;30.43;;;15.97;;
68870;SDS011;55906;52.278;6.808;2024-02-15T04:57:31;28.38;;;14.90;;
68870;SDS011;55906;52.278;6.808;2024-02-15T05:00:01;28.35;;;14.93;;
68870;SDS011;55906;52.278;6.808;2024-02-15T05:02:29;21.63;;;13.48;;
68870;SDS011;55906;52.278;6.808;2024-02-15T05:04:55;22.83;;;13.25;;
68870;SDS011;55906;52.278;6.808;2024-02-15T05:07:22;29.00;;;13.60;;
68870;SDS011;55906;52.278;6.808;2024-02-15T05:09:49;23.45;;;11.95;;
68870;SDS011;55906;52.278;6.808;2024-02-15T05:12:21;21.48;;;13.57;;
68870;SDS011;55906;52.278;6.808;2024-02-15T05:14:48;25.42;;;12.90;;
68870;SDS011;55906;52.278;6.808;2024-02-15T05:17:17;27.10;;;14.20;;
68870;SDS011;55906;52.278;6.808;2024-02-15T05:19:43;21.87;;;12.20;;
68870;SDS011;55906;52.278;6.808;2024-02-15T05:22:11;25.52;;;13.40;;
68870;SDS011;55906;52.278;6.808;2024-02-15T05:24:38;27.30;;;12.43;;
68870;SDS011;55906;52.278;6.808;2024-02-15T05:27:05;20.60;;;12.27;;
68870;SDS011;55906;52.278;6.808;2024-02-15T05:29:32;23.83;;;12.65;;
68870;SDS011;55906;52.278;6.808;2024-02-15T05:31:59;23.17;;;12.67;;
68870;SDS011;55906;52.278;6.808;2024-02-15T05:34:28;18.50;;;11.43;;
68870;SDS011;55906;52.278;6.808;2024-02-15T05:36:55;16.77;;;10.23;;
68870;SDS011;55906;52.278;6.808;2024-02-15T05:39:21;18.08;;;10.45;;
68870;SDS011;55906;52.278;6.808;2024-02-15T05:41:48;16.23;;;10.48;;
68870;SDS011;55906;52.278;6.808;2024-02-15T05:44:15;19.97;;;10.23;;
68870;SDS011;55906;52.278;6.808;2024-02-15T05:46:44;16.92;;;9.30;;
68870;SDS011;55906;52.278;6.808;2024-02-15T05:49:10;19.98;;;9.70;;
68870;SDS011;55906;52.278;6.808;2024-02-15T05:51:42;17.45;;;9.98;;
68870;SDS011;55906;52.278;6.808;2024-02-15T05:54:10;17.63;;;9.30;;
68870;SDS011;55906;52.278;6.808;2024-02-15T05:56:36;13.93;;;8.33;;
68870;SDS011;55906;52.278;6.808;2024-02-15T05:59:03;16.50;;;9.10;;
68870;SDS011;55906;52.278;6.808;2024-02-15T06:01:35;15.13;;;9.70;;
68870;SDS011;55906;52.278;6.808;2024-02-15T06:04:02;18.48;;;8.93;;
68870;SDS011;55906;52.278;6.808;2024-02-15T06:06:30;20.33;;;8.70;;
68870;SDS011;55906;52.278;6.808;2024-02-15T06:08:58;20.37;;;9.07;;
68870;SDS011;55906;52.278;6.808;2024-02-15T06:11:25;17.15;;;9.15;;
68870;SDS011;55906;52.278;6.808;2024-02-15T06:13:52;20.00;;;9.50;;
68870;SDS011;55906;52.278;6.808;2024-02-15T06:16:19;19.00;;;9.30;;
68870;SDS011;55906;52.278;6.808;2024-02-15T06:18:47;18.50;;;9.82;;
68870;SDS011;55906;52.278;6.808;2024-02-15T06:21:14;18.03;;;9.00;;
68870;SDS011;55906;52.278;6.808;2024-02-15T06:23:41;18.98;;;9.20;;
68870;SDS011;55906;52.278;6.808;2024-02-15T06:26:09;20.20;;;9.88;;
68870;SDS011;55906;52.278;6.808;2024-02-15T06:28:36;14.88;;;10.07;;
68870;SDS011;55906;52.278;6.808;2024-02-15T06:31:20;20.88;;;10.45;;
68870;SDS011;55906;52.278;6.808;2024-02-15T06:34:04;26.57;;;11.37;;
68870;SDS011;55906;52.278;6.808;2024-02-15T06:36:49;15.63;;;10.10;;
68870;SDS011;55906;52.278;6.808;2024-02-15T06:39:34;18.25;;;9.18;;
68870;SDS011;55906;52.278;6.808;2024-02-15T06:42:07;16.65;;;8.88;;
68870;SDS011;55906;52.278;6.808;2024-02-15T06:44:34;13.70;;;8.93;;
68870;SDS011;55906;52.278;6.808;2024-02-15T06:47:01;17.20;;;9.07;;
68870;SDS011;55906;52.278;6.808;2024-02-15T06:49:27;16.25;;;8.85;;
68870;SDS011;55906;52.278;6.808;2024-02-15T06:51:54;17.55;;;9.60;;
68870;SDS011;55906;52.278;6.808;2024-02-15T06:54:21;21.40;;;10.88;;
68870;SDS011;55906;52.278;6.808;2024-02-15T06:56:48;20.70;;;10.73;;
68870;SDS011;55906;52.278;6.808;2024-02-15T06:59:18;18.30;;;10.70;;
68870;SDS011;55906;52.278;6.808;2024-02-15T07:01:47;18.55;;;10.32;;
68870;SDS011;55906;52.278;6.808;2024-02-15T07:04:14;18.60;;;10.00;;
68870;SDS011;55906;52.278;6.808;2024-02-15T07:06:40;17.30;;;9.38;;
68870;SDS011;55906;52.278;6.808;2024-02-15T07:09:10;17.27;;;9.10;;
68870;SDS011;55906;52.278;6.808;2024-02-15T07:11:36;14.03;;;8.70;;
68870;SDS011;55906;52.278;6.808;2024-02-15T07:14:03;18.48;;;9.45;;
68870;SDS011;55906;52.278;6.808;2024-02-15T07:16:33;18.38;;;9.77;;
68870;SDS011;55906;52.278;6.808;2024-02-15T07:19:00;15.15;;;9.15;;
68870;SDS011;55906;52.278;6.808;2024-02-15T07:21:28;14.93;;;9.75;;
68870;SDS011;55906;52.278;6.808;2024-02-15T07:23:56;21.50;;;13.10;;
68870;SDS011;55906;52.278;6.808;2024-02-15T07:26:24;24.08;;;13.77;;
68870;SDS011;55906;52.278;6.808;2024-02-15T07:28:51;22.27;;;13.77;;
68870;SDS011;55906;52.278;6.808;2024-02-15T07:31:18;19.73;;;13.15;;
68870;SDS011;55906;52.278;6.808;2024-02-15T07:36:28;18.07;;;12.43;;
68870;SDS011;55906;52.278;6.808;2024-02-15T07:38:55;20.70;;;12.15;;
68870;SDS011;55906;52.278;6.808;2024-02-15T07:41:26;18.23;;;10.10;;
68870;SDS011;55906;52.278;6.808;2024-02-15T07:43:53;20.27;;;10.85;;
68870;SDS011;55906;52.278;6.808;2024-02-15T07:46:20;14.30;;;9.05;;
68870;SDS011;55906;52.278;6.808;2024-02-15T07:49:03;15.40;;;9.17;;
68870;SDS011;55906;52.278;6.808;2024-02-15T07:51:32;15.68;;;7.90;;
68870;SDS011;55906;52.278;6.808;2024-02-15T07:53:58;15.57;;;8.15;;
68870;SDS011;55906;52.278;6.808;2024-02-15T07:56:26;14.98;;;8.23;;
68870;SDS011;55906;52.278;6.808;2024-02-15T07:58:53;13.00;;;7.45;;
68870;SDS011;55906;52.278;6.808;2024-02-15T08:01:19;16.00;;;7.63;;
68870;SDS011;55906;52.278;6.808;2024-02-15T08:03:47;13.15;;;6.65;;
68870;SDS011;55906;52.278;6.808;2024-02-15T08:06:15;15.38;;;7.07;;
68870;SDS011;55906;52.278;6.808;2024-02-15T08:08:43;15.48;;;7.10;;
68870;SDS011;55906;52.278;6.808;2024-02-15T08:11:11;13.95;;;7.35;;
68870;SDS011;55906;52.278;6.808;2024-02-15T08:13:42;15.70;;;7.80;;
68870;SDS011;55906;52.278;6.808;2024-02-15T08:16:09;16.92;;;8.77;;
68870;SDS011;55906;52.278;6.808;2024-02-15T08:18:37;13.50;;;8.63;;
68870;SDS011;55906;52.278;6.808;2024-02-15T08:21:04;13.30;;;7.55;;
68870;SDS011;55906;52.278;6.808;2024-02-15T08:23:32;16.90;;;8.70;;
68870;SDS011;55906;52.278;6.808;2024-02-15T08:25:59;18.40;;;9.53;;
68870;SDS011;55906;52.278;6.808;2024-02-15T08:28:26;18.95;;;8.45;;
68870;SDS011;55906;52.278;6.808;2024-02-15T08:30:54;12.70;;;7.60;;
68870;SDS011;55906;52.278;6.808;2024-02-15T08:33:22;12.32;;;7.88;;
68870;SDS011;55906;52.278;6.808;2024-02-15T08:35:48;15.98;;;9.73;;
68870;SDS011;55906;52.278;6.808;2024-02-15T08:38:16;19.40;;;10.27;;
68870;SDS011;55906;52.278;6.808;2024-02-15T08:40:45;18.55;;;10.10;;
68870;SDS011;55906;52.278;6.808;2024-02-15T08:43:12;13.02;;;9.05;;
68870;SDS011;55906;52.278;6.808;2024-02-15T08:45:40;15.68;;;8.35;;
68870;SDS011;55906;52.278;6.808;2024-02-15T08:48:07;15.68;;;7.50;;
68870;SDS011;55906;52.278;6.808;2024-02-15T08:50:33;15.17;;;7.23;;
68870;SDS011;55906;52.278;6.808;2024-02-15T08:53:01;12.43;;;7.40;;
68870;SDS011;55906;52.278;6.808;2024-02-15T08:55:31;12.27;;;7.20;;
68870;SDS011;55906;52.278;6.808;2024-02-15T08:58:02;9.95;;;6.72;;
68870;SDS011;55906;52.278;6.808;2024-02-15T09:00:29;12.32;;;7.40;;
68870;SDS011;55906;52.278;6.808;2024-02-15T09:02:55;10.97;;;6.60;;
68870;SDS011;55906;52.278;6.808;2024-02-15T09:05:22;13.35;;;7.82;;
68870;SDS011;55906;52.278;6.808;2024-02-15T09:07:49;13.50;;;8.98;;
68870;SDS011;55906;52.278;6.808;2024-02-15T09:10:16;17.65;;;10.68;;
68870;SDS011;55906;52.278;6.808;2024-02-15T09:12:43;18.27;;;10.35;;
68870;SDS011;55906;52.278;6.808;2024-02-15T09:15:13;17.03;;;10.37;;
68870;SDS011;55906;52.278;6.808;2024-02-15T09:17:41;15.02;;;8.70;;
68870;SDS011;55906;52.278;6.808;2024-02-15T09:20:09;14.52;;;8.38;;
68870;SDS011;55906;52.278;6.808;2024-02-15T09:22:39;13.52;;;7.80;;
68870;SDS011;55906;52.278;6.808;2024-02-15T09:25:06;12.95;;;6.95;;
68870;SDS011;55906;52.278;6.808;2024-02-15T09:27:34;11.13;;;6.70;;
68870;SDS011;55906;52.278;6.808;2024-02-15T09:30:01;10.63;;;6.55;;
68870;SDS011;55906;52.278;6.808;2024-02-15T09:32:34;11.40;;;7.10;;
68870;SDS011;55906;52.278;6.808;2024-02-15T09:35:01;12.13;;;7.13;;
68870;SDS011;55906;52.278;6.808;2024-02-15T09:37:27;11.27;;;7.30;;
68870;SDS011;55906;52.278;6.808;2024-02-15T09:39:55;9.23;;;6.30;;
68870;SDS011;55906;52.278;6.808;2024-02-15T09:42:21;9.63;;;6.50;;
68870;SDS011;55906;52.278;6.808;2024-02-15T09:44:49;13.40;;;6.35;;
68870;SDS011;55906;52.278;6.808;2024-02-15T09:47:16;9.95;;;6.05;;
68870;SDS011;55906;52.278;6.808;2024-02-15T09:49:46;9.70;;;6.70;;
68870;SDS011;55906;52.278;6.808;2024-02-15T09:52:13;10.43;;;7.33;;
68870;SDS011;55906;52.278;6.808;2024-02-15T09:54:43;14.50;;;7.90;;
68870;SDS011;55906;52.278;6.808;2024-02-15T09:57:10;12.60;;;7.82;;
68870;SDS011;55906;52.278;6.808;2024-02-15T09:59:37;9.32;;;6.30;;
68870;SDS011;55906;52.278;6.808;2024-02-15T10:02:05;14.38;;;7.70;;
68870;SDS011;55906;52.278;6.808;2024-02-15T10:04:35;15.43;;;10.47;;
68870;SDS011;55906;52.278;6.808;2024-02-15T10:07:04;16.17;;;10.98;;
68870;SDS011;55906;52.278;6.808;2024-02-15T10:09:33;13.57;;;8.68;;
68870;SDS011;55906;52.278;6.808;2024-02-15T10:12:13;10.50;;;7.57;;
68870;SDS011;55906;52.278;6.808;2024-02-15T10:14:44;8.07;;;6.00;;
68870;SDS011;55906;52.278;6.808;2024-02-15T10:17:16;8.20;;;5.80;;
68870;SDS011;55906;52.278;6.808;2024-02-15T10:19:45;13.75;;;6.35;;
68870;SDS011;55906;52.278;6.808;2024-02-15T10:22:30;10.80;;;5.90;;
68870;SDS011;55906;52.278;6.808;2024-02-15T10:25:10;8.73;;;5.80;;
68870;SDS011;55906;52.278;6.808;2024-02-15T10:27:37;8.07;;;5.93;;
68870;SDS011;55906;52.278;6.808;2024-02-15T10:30:13;7.17;;;5.53;;
68870;SDS011;55906;52.278;6.808;2024-02-15T10:32:41;8.25;;;5.95;;
68870;SDS011;55906;52.278;6.808;2024-02-15T10:35:08;10.68;;;6.07;;
68870;SDS011;55906;52.278;6.808;2024-02-15T10:37:36;10.32;;;6.20;;
68870;SDS011;55906;52.278;6.808;2024-02-15T10:40:04;9.40;;;7.03;;
68870;SDS011;55906;52.278;6.808;2024-02-15T10:42:32;9.40;;;7.27;;
68870;SDS011;55906;52.278;6.808;2024-02-15T10:45:00;11.63;;;7.22;;
68870;SDS011;55906;52.278;6.808;2024-02-15T10:47:30;10.52;;;6.50;;
68870;SDS011;55906;52.278;6.808;2024-02-15T10:49:57;10.88;;;5.72;;
68870;SDS011;55906;52.278;6.808;2024-02-15T10:52:24;9.55;;;5.85;;
68870;SDS011;55906;52.278;6.808;2024-02-15T10:54:56;10.50;;;5.90;;
68870;SDS011;55906;52.278;6.808;2024-02-15T10:57:30;10.35;;;5.80;;
68870;SDS011;55906;52.278;6.808;2024-02-15T10:59:59;11.38;;;6.18;;
68870;SDS011;55906;52.278;6.808;2024-02-15T11:02:36;13.27;;;7.22;;
68870;SDS011;55906;52.278;6.808;2024-02-15T11:05:06;9.93;;;6.65;;
68870;SDS011;55906;52.278;6.808;2024-02-15T11:07:35;9.33;;;6.10;;
68870;SDS011;55906;52.278;6.808;2024-02-15T11:10:05;13.07;;;6.70;;
68870;SDS011;55906;52.278;6.808;2024-02-15T11:12:35;12.70;;;6.75;;
68870;SDS011;55906;52.278;6.808;2024-02-15T11:15:03;11.60;;;6.57;;
68870;SDS011;55906;52.278;6.808;2024-02-15T11:17:44;9.57;;;6.35;;
68870;SDS011;55906;52.278;6.808;2024-02-15T11:23:10;13.63;;;6.75;;
68870;SDS011;55906;52.278;6.808;2024-02-15T11:25:38;13.40;;;6.88;;
68870;SDS011;55906;52.278;6.808;2024-02-15T11:31:03;14.23;;;8.65;;
68870;SDS011;55906;52.278;6.808;2024-02-15T11:33:34;13.43;;;7.87;;
68870;SDS011;55906;52.278;6.808;2024-02-15T11:36:02;13.57;;;7.40;;
68870;SDS011;55906;52.278;6.808;2024-02-15T11:38:30;11.73;;;7.88;;
68870;SDS011;55906;52.278;6.808;2024-02-15T11:41:01;14.35;;;7.63;;
68870;SDS011;55906;52.278;6.808;2024-02-15T11:43:44;16.55;;;8.00;;
68870;SDS011;55906;52.278;6.808;2024-02-15T11:46:21;16.40;;;7.97;;
68870;SDS011;55906;52.278;6.808;2024-02-15T11:48:51;14.38;;;8.40;;
68870;SDS011;55906;52.278;6.808;2024-02-15T11:51:28;16.00;;;7.90;;
68870;SDS011;55906;52.278;6.808;2024-02-15T11:54:05;14.65;;;7.03;;
68870;SDS011;55906;52.278;6.808;2024-02-15T11:56:55;10.88;;;6.80;;
68870;SDS011;55906;52.278;6.808;2024-02-15T11:59:38;13.63;;;7.37;;
68870;SDS011;55906;52.278;6.808;2024-02-15T12:02:38;16.08;;;6.60;;
68870;SDS011;55906;52.278;6.808;2024-02-15T12:05:22;13.25;;;5.97;;
68870;SDS011;55906;52.278;6.808;2024-02-15T12:08:06;10.23;;;5.63;;
68870;SDS011;55906;52.278;6.808;2024-02-15T12:10:56;12.07;;;6.20;;
68870;SDS011;55906;52.278;6.808;2024-02-15T12:13:42;11.07;;;6.10;;
68870;SDS011;55906;52.278;6.808;2024-02-15T12:16:26;10.38;;;6.20;;
68870;SDS011;55906;52.278;6.808;2024-02-15T12:19:11;11.82;;;5.90;;
68870;SDS011;55906;52.278;6.808;2024-02-15T12:21:37;11.77;;;6.07;;
68870;SDS011;55906;52.278;6.808;2024-02-15T12:24:06;10.55;;;5.18;;
68870;SDS011;55906;52.278;6.808;2024-02-15T12:26:33;10.40;;;4.90;;
68870;SDS011;55906;52.278;6.808;2024-02-15T12:29:02;9.93;;;5.88;;
68870;SDS011;55906;52.278;6.808;2024-02-15T12:31:31;12.48;;;5.25;;
68870;SDS011;55906;52.278;6.808;2024-02-15T12:34:03;12.20;;;5.38;;
68870;SDS011;55906;52.278;6.808;2024-02-15T12:36:31;13.70;;;6.55;;
68870;SDS011;55906;52.278;6.808;2024-02-15T12:38:59;10.90;;;6.57;;
68870;SDS011;55906;52.278;6.808;2024-02-15T12:41:26;11.73;;;5.75;;
68870;SDS011;55906;52.278;6.808;2024-02-15T12:43:53;13.20;;;5.57;;
68870;SDS011;55906;52.278;6.808;2024-02-15T12:46:21;12.38;;;6.20;;
68870;SDS011;55906;52.278;6.808;2024-02-15T12:48:47;10.63;;;5.30;;
68870;SDS011;55906;52.278;6.808;2024-02-15T12:51:15;8.03;;;5.30;;
68870;SDS011;55906;52.278;6.808;2024-02-15T12:53:42;13.52;;;5.55;;
68870;SDS011;55906;52.278;6.808;2024-02-15T12:56:08;10.02;;;5.22;;
68870;SDS011;55906;52.278;6.808;2024-02-15T12:58:35;10.93;;;4.85;;
68870;SDS011;55906;52.278;6.808;2024-02-15T13:01:04;11.50;;;5.30;;
68870;SDS011;55906;52.278;6.808;2024-02-15T13:03:32;14.30;;;5.53;;
68870;SDS011;55906;52.278;6.808;2024-02-15T13:05:58;14.45;;;6.22;;
68870;SDS011;55906;52.278;6.808;2024-02-15T13:08:25;13.45;;;5.53;;
68870;SDS011;55906;52.278;6.808;2024-02-15T13:10:52;11.38;;;6.30;;
68870;SDS011;55906;52.278;6.808;2024-02-15T13:13:18;13.98;;;5.78;;
68870;SDS011;55906;52.278;6.808;2024-02-15T13:15:46;10.93;;;6.60;;
68870;SDS011;55906;52.278;6.808;2024-02-15T13:18:13;10.65;;;5.25;;
68870;SDS011;55906;52.278;6.808;2024-02-15T13:20:41;11.00;;;5.50;;
68870;SDS011;55906;52.278;6.808;2024-02-15T13:23:08;14.90;;;6.38;;
68870;SDS011;55906;52.278;6.808;2024-02-15T13:25:41;9.93;;;4.88;;
68870;SDS011;55906;52.278;6.808;2024-02-15T13:28:08;13.17;;;5.20;;
68870;SDS011;55906;52.278;6.808;2024-02-15T13:30:35;11.48;;;4.75;;
68870;SDS011;55906;52.278;6.808;2024-02-15T13:33:02;14.05;;;5.38;;
68870;SDS011;55906;52.278;6.808;2024-02-15T13:35:29;9.30;;;4.82;;
68870;SDS011;55906;52.278;6.808;2024-02-15T13:37:57;9.25;;;5.60;;
68870;SDS011;55906;52.278;6.808;2024-02-15T13:40:24;7.87;;;4.77;;
68870;SDS011;55906;52.278;6.808;2024-02-15T13:42:53;10.02;;;4.68;;
68870;SDS011;55906;52.278;6.808;2024-02-15T13:45:24;11.15;;;5.05;;
68870;SDS011;55906;52.278;6.808;2024-02-15T13:47:55;9.77;;;5.28;;
68870;SDS011;55906;52.278;6.808;2024-02-15T13:50:23;10.30;;;5.15;;
68870;SDS011;55906;52.278;6.808;2024-02-15T13:52:50;10.63;;;5.83;;
68870;SDS011;55906;52.278;6.808;2024-02-15T13:55:18;14.40;;;5.70;;
68870;SDS011;55906;52.278;6.808;2024-02-15T13:57:45;10.48;;;5.95;;
68870;SDS011;55906;52.278;6.808;2024-02-15T14:00:14;10.60;;;6.05;;
68870;SDS011;55906;52.278;6.808;2024-02-15T14:02:47;11.98;;;6.35;;
68870;SDS011;55906;52.278;6.808;2024-02-15T14:05:14;15.20;;;5.57;;
68870;SDS011;55906;52.278;6.808;2024-02-15T14:07:45;9.70;;;5.95;;
68870;SDS011;55906;52.278;6.808;2024-02-15T14:10:13;10.50;;;5.80;;
68870;SDS011;55906;52.278;6.808;2024-02-15T14:12:41;10.82;;;5.85;;
68870;SDS011;55906;52.278;6.808;2024-02-15T14:15:08;12.35;;;5.05;;
68870;SDS011;55906;52.278;6.808;2024-02-15T14:17:35;11.97;;;5.70;;
68870;SDS011;55906;52.278;6.808;2024-02-15T14:20:02;11.05;;;5.82;;
68870;SDS011;55906;52.278;6.808;2024-02-15T14:22:33;8.55;;;5.05;;
68870;SDS011;55906;52.278;6.808;2024-02-15T14:25:00;10.40;;;5.75;;
68870;SDS011;55906;52.278;6.808;2024-02-15T14:27:29;10.38;;;4.97;;
68870;SDS011;55906;52.278;6.808;2024-02-15T14:29:57;11.50;;;5.30;;
68870;SDS011;55906;52.278;6.808;2024-02-15T14:32:41;8.00;;;4.50;;
68870;SDS011;55906;52.278;6.808;2024-02-15T14:35:26;11.02;;;4.70;;
68870;SDS011;55906;52.278;6.808;2024-02-15T14:37:53;7.88;;;4.35;;
68870;SDS011;55906;52.278;6.808;2024-02-15T14:40:21;9.30;;;4.28;;
68870;SDS011;55906;52.278;6.808;2024-02-15T14:42:48;9.77;;;4.40;;
68870;SDS011;55906;52.278;6.808;2024-02-15T14:45:16;9.30;;;4.32;;
68870;SDS011;55906;52.278;6.808;2024-02-15T14:47:42;8.80;;;4.53;;
68870;SDS011;55906;52.278;6.808;2024-02-15T14:50:09;8.88;;;4.28;;
68870;SDS011;55906;52.278;6.808;2024-02-15T14:52:38;8.90;;;4.35;;
68870;SDS011;55906;52.278;6.808;2024-02-15T14:55:05;7.63;;;4.00;;